Time;durP1;ratioP1;P1;durP2;ratioP2;P2;SDS_P1;SDS_P2;PMS_P1;PMS_P2;Temp;Humidity;BMP_temperature;BMP_pressure;BME280_temperature;BME280_humidity;BME280_pressure;Samples;Min_cycle;Max_cycle;Signal;HPM_P1;HPM_P2
2022/09/02 00:01:09;;;;;;;2.80;1.73;;;14.10;99.90;;;;;;5003901;28;20218;-86
2022/09/02 00:03:35;;;;;;;2.13;1.80;;;14.10;99.90;;;;;;5014928;28;20279;-85
2022/09/02 00:06:01;;;;;;;1.60;1.50;;;14.10;99.90;;;;;;5014734;28;20681;-85
2022/09/02 00:08:30;;;;;;;2.07;1.70;;;14.00;99.90;;;;;;5013286;28;20329;-84
2022/09/02 00:10:56;;;;;;;2.37;1.87;;;14.00;99.90;;;;;;5013678;28;20191;-84
2022/09/02 00:13:22;;;;;;;2.50;2.07;;;14.00;99.90;;;;;;5013249;28;20223;-84
2022/09/02 00:15:48;;;;;;;1.60;1.50;;;14.10;99.90;;;;;;5015601;28;20261;-85
2022/09/02 00:18:15;;;;;;;1.57;1.47;;;14.10;99.90;;;;;;5005266;28;20223;-84
2022/09/02 00:20:43;;;;;;;2.03;1.87;;;14.00;99.90;;;;;;5013262;28;20215;-84
2022/09/02 00:23:10;;;;;;;1.30;1.20;;;14.00;99.90;;;;;;5013832;28;20194;-84
2022/09/02 00:25:37;;;;;;;1.53;1.40;;;14.00;99.90;;;;;;5014464;28;20243;-85
2022/09/02 00:28:03;;;;;;;2.07;1.60;;;14.10;99.90;;;;;;5013002;28;20276;-85
2022/09/02 00:30:29;;;;;;;2.33;1.70;;;14.00;99.90;;;;;;5009043;28;20219;-85
2022/09/02 00:32:55;;;;;;;1.77;1.67;;;14.00;99.90;;;;;;4990286;28;20228;-85
2022/09/02 00:35:20;;;;;;;1.60;1.50;;;13.90;99.90;;;;;;4985957;28;20188;-84
2022/09/02 00:37:46;;;;;;;1.43;1.33;;;13.90;99.90;;;;;;4994401;28;20231;-84
2022/09/02 00:40:13;;;;;;;1.67;1.50;;;13.80;99.90;;;;;;4973408;28;20216;-85
2022/09/02 00:42:40;;;;;;;1.77;1.43;;;13.80;99.90;;;;;;4996648;28;20689;-89
2022/09/02 00:45:08;;;;;;;1.87;1.63;;;13.80;99.90;;;;;;5010135;28;20223;-86
2022/09/02 00:47:35;;;;;;;1.70;1.60;;;13.80;99.90;;;;;;5006168;28;20192;-85
2022/09/02 00:50:05;;;;;;;1.73;1.20;;;13.70;99.90;;;;;;5008960;28;20633;-85
2022/09/02 00:52:40;;;;;;;1.60;1.50;;;13.70;99.90;;;;;;5013415;28;20239;-85
2022/09/02 00:55:28;;;;;;;2.37;1.97;;;13.70;99.90;;;;;;5012722;28;20219;-84
2022/09/02 00:58:02;;;;;;;1.57;1.40;;;13.60;99.90;;;;;;5004290;28;20894;-84
2022/09/02 01:00:37;;;;;;;2.00;1.20;;;13.50;99.90;;;;;;5013603;28;20309;-84
2022/09/02 01:03:07;;;;;;;1.77;1.60;;;13.50;99.90;;;;;;5006175;28;20277;-87
2022/09/02 01:05:37;;;;;;;1.90;1.67;;;13.50;99.90;;;;;;4994761;28;20180;-85
2022/09/02 01:08:06;;;;;;;1.80;1.27;;;13.40;99.90;;;;;;5013880;28;20237;-85
2022/09/02 01:10:33;;;;;;;1.50;1.40;;;13.40;99.90;;;;;;5013696;28;20576;-84
2022/09/02 01:13:05;;;;;;;1.27;1.17;;;13.40;99.90;;;;;;4995590;28;20227;-85
2022/09/02 01:15:35;;;;;;;1.53;1.43;;;13.40;99.90;;;;;;5010564;28;20668;-84
2022/09/02 01:18:02;;;;;;;1.60;1.50;;;13.40;99.90;;;;;;5008566;28;20648;-84
2022/09/02 01:20:28;;;;;;;2.03;1.40;;;13.40;99.90;;;;;;5009729;28;20194;-85
2022/09/02 01:22:56;;;;;;;2.27;1.70;;;13.30;99.90;;;;;;5013347;28;20572;-83
2022/09/02 01:25:26;;;;;;;1.83;1.73;;;13.30;99.90;;;;;;5008078;28;20226;-87
2022/09/02 01:27:53;;;;;;;2.00;1.50;;;13.20;99.90;;;;;;4994467;28;20562;-84
2022/09/02 01:30:24;;;;;;;1.63;1.53;;;13.20;99.90;;;;;;5001935;28;20270;-84
2022/09/02 01:32:51;;;;;;;3.73;2.10;;;13.20;99.90;;;;;;5012884;28;20227;-85
2022/09/02 01:35:17;;;;;;;6.30;1.97;;;13.10;99.90;;;;;;4996181;28;20187;-86
2022/09/02 01:37:44;;;;;;;2.53;2.13;;;13.00;99.90;;;;;;4993638;28;20266;-86
2022/09/02 01:40:13;;;;;;;2.50;1.93;;;13.00;99.90;;;;;;5008736;28;20265;-85
2022/09/02 01:42:39;;;;;;;1.50;1.40;;;12.90;99.90;;;;;;5012960;28;20669;-86
2022/09/02 01:45:07;;;;;;;1.60;1.50;;;12.90;99.90;;;;;;5012819;28;20238;-86
2022/09/02 01:47:34;;;;;;;1.73;1.60;;;12.90;99.90;;;;;;5012795;28;20187;-85
2022/09/02 01:50:03;;;;;;;1.93;1.77;;;12.90;99.90;;;;;;5017424;28;20191;-86
2022/09/02 01:52:29;;;;;;;1.63;1.53;;;12.80;99.90;;;;;;4996990;28;20339;-86
2022/09/02 01:54:56;;;;;;;1.80;1.70;;;12.80;99.90;;;;;;4990253;28;20251;-87
2022/09/02 01:57:23;;;;;;;1.47;1.37;;;12.80;99.90;;;;;;4993296;28;20215;-86
2022/09/02 01:59:50;;;;;;;2.13;1.57;;;12.80;99.90;;;;;;4992783;28;20212;-85
2022/09/02 02:02:17;;;;;;;2.10;1.87;;;12.80;99.90;;;;;;4975904;28;20195;-85
2022/09/02 02:04:44;;;;;;;2.50;1.60;;;12.80;99.90;;;;;;5011707;28;20227;-87
2022/09/02 02:07:13;;;;;;;1.70;1.43;;;12.80;99.90;;;;;;5012135;28;20273;-85
2022/09/02 02:09:40;;;;;;;2.20;2.00;;;12.80;99.90;;;;;;5011279;28;20704;-83
2022/09/02 02:12:06;;;;;;;2.27;1.80;;;12.80;99.90;;;;;;5011939;28;20235;-88
2022/09/02 02:14:32;;;;;;;1.57;1.47;;;12.70;99.90;;;;;;5012392;28;20191;-84
2022/09/02 02:16:58;;;;;;;3.30;1.77;;;12.70;99.90;;;;;;5016534;28;20195;-85
2022/09/02 02:19:24;;;;;;;2.67;2.03;;;12.60;99.90;;;;;;5012310;28;20762;-85
2022/09/02 02:21:50;;;;;;;2.10;1.63;;;12.60;99.90;;;;;;5019469;28;20602;-84
2022/09/02 02:24:16;;;;;;;12.83;1.40;;;12.60;99.90;;;;;;4985938;28;20701;-85
2022/09/02 02:26:41;;;;;;;2.70;1.40;;;12.60;99.90;;;;;;5011911;28;20219;-84
2022/09/02 02:29:07;;;;;;;2.33;1.67;;;12.50;99.90;;;;;;5012472;28;20705;-84
2022/09/02 02:31:33;;;;;;;2.27;1.80;;;12.50;99.90;;;;;;5011031;28;20306;-84
2022/09/02 02:33:59;;;;;;;2.20;1.80;;;12.50;99.90;;;;;;5012001;28;20358;-84
2022/09/02 02:36:25;;;;;;;4.57;1.50;;;12.50;99.90;;;;;;5011901;28;20223;-84
2022/09/02 02:38:50;;;;;;;2.30;1.37;;;12.40;99.90;;;;;;5011850;28;20222;-85
2022/09/02 02:41:16;;;;;;;5.77;1.93;;;12.40;99.90;;;;;;5011478;28;20662;-85
2022/09/02 02:43:43;;;;;;;2.27;1.57;;;12.30;99.90;;;;;;5011721;28;20229;-82
2022/09/02 02:46:08;;;;;;;3.40;1.80;;;12.40;99.90;;;;;;5007415;28;20224;-82
2022/09/02 02:48:35;;;;;;;1.63;1.37;;;12.40;99.90;;;;;;5001537;28;20223;-80
2022/09/02 02:51:01;;;;;;;3.13;1.77;;;12.40;99.90;;;;;;5026867;28;20227;-80
2022/09/02 02:53:29;;;;;;;1.43;1.33;;;12.40;99.90;;;;;;5010367;28;20245;-79
2022/09/02 02:55:59;;;;;;;1.50;1.37;;;12.30;99.90;;;;;;5012093;28;20179;-80
2022/09/02 02:58:25;;;;;;;1.80;1.60;;;12.30;99.90;;;;;;5011589;28;20227;-79
2022/09/02 03:00:50;;;;;;;1.63;1.53;;;12.30;99.90;;;;;;5010648;28;20723;-82
2022/09/02 03:03:18;;;;;;;1.60;1.27;;;12.30;99.90;;;;;;5007198;28;20227;-82
2022/09/02 03:05:46;;;;;;;1.83;1.73;;;12.30;99.90;;;;;;4994001;28;20668;-82
2022/09/02 03:08:12;;;;;;;2.17;1.57;;;12.30;99.90;;;;;;5027243;28;20281;-81
2022/09/02 03:10:40;;;;;;;1.43;1.20;;;12.30;99.90;;;;;;5007441;28;20232;-81
2022/09/02 03:13:08;;;;;;;1.10;1.10;;;12.40;99.90;;;;;;5006395;28;20277;-82
2022/09/02 03:15:36;;;;;;;1.93;1.80;;;12.40;99.90;;;;;;4994604;28;20215;-82
2022/09/02 03:18:01;;;;;;;1.60;1.33;;;12.40;99.90;;;;;;5011419;28;20630;-82
2022/09/02 03:20:27;;;;;;;1.40;1.30;;;12.40;99.90;;;;;;4994041;28;20191;-82
2022/09/02 03:22:57;;;;;;;1.73;1.63;;;12.40;99.90;;;;;;5010815;28;20218;-82
2022/09/02 03:25:24;;;;;;;1.80;1.53;;;12.40;99.90;;;;;;5011736;28;20220;-83
2022/09/02 03:27:50;;;;;;;1.90;1.60;;;12.40;99.90;;;;;;5009597;28;20302;-82
2022/09/02 03:30:25;;;;;;;1.90;1.80;;;12.30;99.90;;;;;;5026698;28;20753;-81
2022/09/02 03:32:53;;;;;;;3.13;1.63;;;12.40;99.90;;;;;;5011469;28;20219;-82
2022/09/02 03:35:21;;;;;;;2.60;1.30;;;12.30;99.90;;;;;;5011145;28;20187;-82
2022/09/02 03:37:48;;;;;;;1.50;1.40;;;12.30;99.90;;;;;;5011970;28;20176;-82
2022/09/02 03:40:17;;;;;;;1.67;1.53;;;12.30;99.90;;;;;;5010168;28;20376;-83
2022/09/02 03:42:43;;;;;;;5.73;1.57;;;12.30;99.90;;;;;;5011270;28;20223;-82
2022/09/02 03:45:10;;;;;;;1.67;1.57;;;12.20;99.90;;;;;;5011109;28;20225;-81
2022/09/02 03:47:39;;;;;;;1.57;1.47;;;12.20;99.90;;;;;;4994185;28;20445;-81
2022/09/02 03:50:05;;;;;;;1.70;1.60;;;12.20;99.90;;;;;;5011653;28;20187;-81
2022/09/02 03:52:31;;;;;;;2.10;1.73;;;12.10;99.90;;;;;;5011391;28;20730;-81
2022/09/02 03:54:57;;;;;;;14.53;1.80;;;12.10;99.90;;;;;;5010117;28;20215;-81
2022/09/02 03:57:24;;;;;;;1.53;1.43;;;12.00;99.90;;;;;;4993434;28;20211;-82
2022/09/02 03:59:50;;;;;;;2.00;1.80;;;11.90;99.90;;;;;;4989760;28;20395;-81
2022/09/02 04:02:17;;;;;;;5.30;2.30;;;11.90;99.90;;;;;;4991962;28;20216;-80
2022/09/02 04:04:43;;;;;;;2.47;2.27;;;12.00;99.90;;;;;;4990819;28;20216;-82
2022/09/02 04:07:09;;;;;;;2.17;1.70;;;11.90;99.90;;;;;;5005227;28;20215;-81
2022/09/02 04:09:34;;;;;;;5.03;1.73;;;11.90;99.90;;;;;;4993626;28;20243;-80
2022/09/02 04:12:01;;;;;;;1.50;1.40;;;11.90;99.90;;;;;;5011020;28;20700;-81
2022/09/02 04:14:27;;;;;;;1.50;1.40;;;11.90;99.90;;;;;;5010860;28;20187;-81
2022/09/02 04:16:53;;;;;;;1.50;1.40;;;11.90;99.90;;;;;;5010612;28;20609;-80
2022/09/02 04:19:19;;;;;;;2.23;1.80;;;11.80;99.90;;;;;;5013386;28;20219;-81
2022/09/02 04:21:44;;;;;;;1.90;1.30;;;11.80;99.90;;;;;;5010137;28;20224;-80
2022/09/02 04:24:11;;;;;;;1.50;1.40;;;11.80;99.90;;;;;;5001141;28;20246;-80
2022/09/02 04:26:37;;;;;;;3.73;2.17;;;11.80;99.90;;;;;;5014800;28;20241;-82
2022/09/02 04:29:04;;;;;;;2.23;1.80;;;11.70;99.90;;;;;;4997431;28;20190;-81
2022/09/02 04:31:30;;;;;;;2.53;1.50;;;11.70;99.90;;;;;;5013484;28;20298;-81
2022/09/02 04:33:57;;;;;;;1.80;1.70;;;11.60;99.90;;;;;;5009894;28;20315;-82
2022/09/02 04:36:24;;;;;;;1.80;1.27;;;11.50;99.90;;;;;;5002261;28;20701;-80
2022/09/02 04:38:51;;;;;;;1.90;1.67;;;11.50;99.90;;;;;;4996823;28;20212;-81
2022/09/02 04:41:24;;;;;;;2.63;1.90;;;11.50;99.90;;;;;;5014289;28;20175;-80
2022/09/02 04:43:53;;;;;;;2.33;2.10;;;11.50;99.90;;;;;;5009810;28;20230;-80
2022/09/02 04:46:18;;;;;;;3.27;1.60;;;11.50;99.90;;;;;;4993250;28;20246;-81
2022/09/02 04:48:46;;;;;;;2.10;1.90;;;11.40;99.90;;;;;;4993345;28;20634;-80
2022/09/02 04:51:18;;;;;;;2.47;1.40;;;11.40;99.90;;;;;;4994478;28;20239;-82
2022/09/02 04:53:46;;;;;;;1.60;1.50;;;11.50;99.90;;;;;;4993152;28;20227;-81
2022/09/02 04:56:20;;;;;;;2.20;1.60;;;11.40;99.90;;;;;;5010117;28;20180;-81
2022/09/02 04:58:46;;;;;;;3.03;1.57;;;11.40;99.90;;;;;;5013123;28;20210;-80
2022/09/02 05:01:16;;;;;;;1.90;1.70;;;11.40;99.90;;;;;;5012354;28;20215;-80
2022/09/02 05:03:44;;;;;;;1.70;1.60;;;11.40;99.90;;;;;;5009428;28;20227;-81
2022/09/02 05:06:13;;;;;;;1.87;1.43;;;11.50;99.90;;;;;;4999886;28;20302;-82
2022/09/02 05:08:41;;;;;;;2.20;1.73;;;11.50;99.90;;;;;;5012443;28;20231;-80
2022/09/02 05:11:17;;;;;;;4.03;1.67;;;11.50;99.90;;;;;;5012701;28;20240;-83
2022/09/02 05:13:50;;;;;;;1.67;1.37;;;11.50;99.90;;;;;;5014125;28;20219;-82
2022/09/02 05:16:18;;;;;;;2.33;1.97;;;11.60;99.90;;;;;;5013446;28;20220;-82
2022/09/02 05:18:43;;;;;;;1.47;1.37;;;11.70;99.90;;;;;;5013560;28;20235;-82
2022/09/02 05:21:09;;;;;;;2.43;2.23;;;11.70;99.90;;;;;;5012022;28;20211;-83
2022/09/02 05:23:36;;;;;;;2.40;2.20;;;11.80;99.90;;;;;;5013538;28;20199;-81
2022/09/02 05:26:04;;;;;;;3.07;1.97;;;11.90;99.90;;;;;;5014012;28;20186;-81
2022/09/02 05:28:30;;;;;;;2.20;2.10;;;11.90;99.90;;;;;;5012025;28;20266;-81
2022/09/02 05:31:05;;;;;;;2.93;2.10;;;12.00;99.90;;;;;;5013445;28;20689;-81
2022/09/02 05:33:33;;;;;;;3.27;1.77;;;12.10;99.90;;;;;;5013383;28;20231;-81
2022/09/02 05:35:58;;;;;;;1.50;1.40;;;12.20;99.90;;;;;;4995988;28;20230;-80
2022/09/02 05:38:24;;;;;;;2.10;1.90;;;12.30;99.90;;;;;;5013111;28;20203;-81
2022/09/02 05:40:50;;;;;;;2.20;1.83;;;12.40;99.90;;;;;;4996212;28;20641;-82
2022/09/02 05:43:16;;;;;;;2.83;1.40;;;12.40;99.90;;;;;;5011839;28;20293;-82
2022/09/02 05:45:42;;;;;;;2.63;2.20;;;12.40;99.90;;;;;;5008631;28;20697;-82
2022/09/02 05:50:56;;;;;;;1.90;1.80;;;12.60;99.90;;;;;;4979895;28;20222;-81
2022/09/02 05:53:21;;;;;;;1.90;1.80;;;12.60;99.90;;;;;;4979199;28;20207;-81
2022/09/02 05:55:47;;;;;;;2.33;1.80;;;12.80;99.90;;;;;;5012377;28;20219;-84
2022/09/02 05:58:13;;;;;;;2.00;1.70;;;13.30;99.90;;;;;;5011629;28;20226;-82
2022/09/02 06:00:39;;;;;;;2.73;2.17;;;14.10;99.90;;;;;;5011432;28;20219;-84
2022/09/02 06:03:05;;;;;;;2.27;1.80;;;15.10;99.90;;;;;;4995573;28;20227;-82
2022/09/02 06:05:31;;;;;;;1.43;1.33;;;16.00;99.90;;;;;;4995326;28;20233;-82
2022/09/02 06:07:57;;;;;;;2.40;1.60;;;17.00;99.90;;;;;;5013006;28;20195;-80
2022/09/02 06:10:22;;;;;;;2.63;1.77;;;17.90;99.90;;;;;;5011207;28;20215;-81
2022/09/02 06:12:48;;;;;;;1.47;1.37;;;18.30;99.90;;;;;;4995296;28;20220;-83
2022/09/02 06:15:14;;;;;;;8.13;1.33;;;18.60;99.90;;;;;;4978639;28;20223;-82
2022/09/02 06:17:39;;;;;;;2.10;1.20;;;19.00;99.90;;;;;;4995027;28;20242;-83
2022/09/02 06:20:05;;;;;;;1.40;1.30;;;19.30;99.90;;;;;;5011894;28;20191;-83
2022/09/02 06:22:31;;;;;;;1.40;1.30;;;19.60;99.90;;;;;;5011242;28;20233;-81
2022/09/02 06:24:57;;;;;;;1.77;1.67;;;18.70;99.90;;;;;;5007873;28;20231;-82
2022/09/02 06:27:23;;;;;;;2.40;1.97;;;17.80;99.90;;;;;;5000392;28;20622;-81
2022/09/02 06:29:48;;;;;;;3.70;1.33;;;17.00;99.90;;;;;;5012211;28;20349;-82
2022/09/02 06:32:14;;;;;;;1.93;1.50;;;16.40;99.90;;;;;;4995150;28;20479;-81
2022/09/02 06:34:40;;;;;;;2.90;1.40;;;16.10;99.90;;;;;;4995714;28;20219;-87
2022/09/02 06:37:06;;;;;;;1.50;1.40;;;15.90;99.90;;;;;;5013368;28;20298;-84
2022/09/02 06:39:31;;;;;;;1.93;1.50;;;15.70;99.90;;;;;;4979024;28;20719;-85
2022/09/02 06:41:57;;;;;;;1.37;1.27;;;15.50;99.90;;;;;;4995601;28;20231;-87
2022/09/02 06:44:23;;;;;;;1.77;1.67;;;15.50;99.90;;;;;;4996030;28;20190;-87
2022/09/02 06:46:57;;;;;;;1.50;1.40;;;15.50;99.90;;;;;;5012600;28;20183;-87
2022/09/02 06:49:26;;;;;;;2.20;1.40;;;15.70;99.90;;;;;;5012985;28;20214;-88
2022/09/02 06:51:55;;;;;;;1.33;1.20;;;15.90;99.90;;;;;;5008411;28;20295;-87
2022/09/02 06:54:22;;;;;;;1.60;1.50;;;16.10;99.90;;;;;;4985070;28;20226;-88
2022/09/02 06:56:49;;;;;;;5.27;1.20;;;16.90;99.90;;;;;;5008566;28;20224;-87
2022/09/02 06:59:19;;;;;;;4.93;1.47;;;17.60;99.90;;;;;;4993040;28;20180;-89
2022/09/02 07:01:45;;;;;;;1.40;1.20;;;18.00;99.90;;;;;;5009060;28;20290;-88
2022/09/02 07:06:58;;;;;;;1.60;1.50;;;18.80;99.90;;;;;;5006648;28;20266;-88
2022/09/02 07:09:32;;;;;;;1.90;1.10;;;19.00;99.90;;;;;;4991835;28;20254;-87
2022/09/02 07:12:02;;;;;;;0.90;0.90;;;18.60;99.90;;;;;;4982094;28;20234;-88
2022/09/02 07:14:28;;;;;;;3.70;1.70;;;18.70;99.90;;;;;;4995377;28;20217;-87
2022/09/02 07:16:56;;;;;;;1.50;1.37;;;19.20;99.90;;;;;;4979694;28;20269;-88
2022/09/02 07:19:24;;;;;;;1.60;1.50;;;19.60;99.90;;;;;;5011634;28;20230;-88
2022/09/02 07:21:49;;;;;;;1.20;1.10;;;19.80;99.90;;;;;;5008063;28;20220;-88
2022/09/02 07:24:16;;;;;;;2.03;1.20;;;19.80;99.90;;;;;;4983157;28;20306;-85
2022/09/02 07:26:43;;;;;;;1.10;1.00;;;19.60;99.90;;;;;;5008081;28;20238;-88
2022/09/02 07:29:09;;;;;;;2.80;1.50;;;19.50;99.90;;;;;;4976339;28;20275;-90
2022/09/02 07:31:37;;;;;;;1.90;1.47;;;19.80;99.90;;;;;;5010279;28;20247;-87
2022/09/02 07:34:05;;;;;;;2.23;1.60;;;19.50;99.90;;;;;;5008111;28;20232;-87
2022/09/02 07:36:33;;;;;;;3.20;1.47;;;19.70;99.90;;;;;;5001411;28;20250;-87
2022/09/02 07:39:00;;;;;;;1.43;1.33;;;19.60;99.90;;;;;;5007951;28;20235;-86
2022/09/02 07:41:26;;;;;;;1.33;1.23;;;19.70;99.90;;;;;;4976397;28;20184;-87
2022/09/02 07:43:52;;;;;;;1.80;1.70;;;19.80;99.90;;;;;;5011848;28;20274;-88
2022/09/02 07:46:18;;;;;;;1.30;1.20;;;20.10;99.90;;;;;;5011494;28;20298;-87
2022/09/02 07:48:44;;;;;;;1.07;0.97;;;20.40;99.90;;;;;;5013123;28;20229;-87
2022/09/02 07:51:11;;;;;;;1.40;1.30;;;20.60;99.90;;;;;;5014817;28;20672;-89
2022/09/02 07:53:37;;;;;;;3.23;1.40;;;20.70;99.90;;;;;;5051016;28;20199;-86
2022/09/02 07:56:03;;;;;;;1.40;1.30;;;20.70;99.90;;;;;;5007082;28;20179;-88
2022/09/02 07:58:29;;;;;;;2.03;1.50;;;20.90;99.90;;;;;;4998928;28;20219;-88
2022/09/02 08:00:56;;;;;;;2.23;1.23;;;20.80;99.90;;;;;;5016468;28;20245;-87
2022/09/02 08:03:23;;;;;;;1.77;1.50;;;20.60;99.90;;;;;;5015043;28;20798;-87
2022/09/02 08:05:49;;;;;;;2.22;1.85;;;20.80;99.90;;;;;;5015355;28;20223;-88
2022/09/02 08:08:19;;;;;;;1.73;1.63;;;20.60;99.90;;;;;;5016738;28;20560;-89
2022/09/02 08:10:46;;;;;;;1.63;1.20;;;20.90;99.90;;;;;;5032025;28;20230;-88
2022/09/02 08:13:13;;;;;;;1.60;1.13;;;21.10;99.90;;;;;;5031405;28;20239;-87
2022/09/02 08:15:38;;;;;;;1.75;1.65;;;20.60;99.90;;;;;;5011410;28;20303;-86
2022/09/02 08:18:06;;;;;;;1.30;1.20;;;20.80;99.90;;;;;;4998103;28;20289;-86
2022/09/02 08:20:32;;;;;;;1.40;1.30;;;20.90;99.90;;;;;;5015340;28;20229;-86
2022/09/02 08:22:58;;;;;;;1.25;1.15;;;21.20;99.90;;;;;;4998941;28;20179;-87
2022/09/02 08:25:24;;;;;;;2.90;1.30;;;21.60;99.90;;;;;;5014356;28;20246;-86
2022/09/02 08:27:52;;;;;;;1.83;1.10;;;21.40;99.90;;;;;;5011013;28;20216;-86
2022/09/02 08:30:18;;;;;;;3.15;1.25;;;21.30;99.90;;;;;;5002938;28;20229;-85
2022/09/02 08:32:43;;;;;;;1.48;1.38;;;21.70;99.90;;;;;;5014312;28;20227;-87
2022/09/02 08:35:09;;;;;;;1.60;1.50;;;21.40;99.90;;;;;;4998499;28;20703;-89
2022/09/02 08:37:36;;;;;;;1.42;1.33;;;21.50;99.90;;;;;;4981969;28;20219;-85
2022/09/02 08:40:06;;;;;;;5.57;1.50;;;21.80;99.90;;;;;;5014566;28;20239;-88
2022/09/02 08:42:40;;;;;;;1.40;1.30;;;21.90;99.90;;;;;;5014155;28;20653;-87
2022/09/02 08:45:36;;;;;;;1.85;1.33;;;22.20;99.90;;;;;;5010922;28;20226;-86
2022/09/02 08:48:26;;;;;;;1.30;1.20;;;22.00;99.90;;;;;;5001362;28;20246;-86
2022/09/02 08:50:59;;;;;;;0.90;0.90;;;21.80;99.90;;;;;;5010640;28;20211;-84
2022/09/02 08:53:47;;;;;;;1.50;1.40;;;21.50;99.90;;;;;;4994793;28;20212;-85
2022/09/02 08:56:17;;;;;;;1.38;1.23;;;21.80;99.90;;;;;;5014201;28;20202;-88
2022/09/02 08:58:46;;;;;;;4.55;1.42;;;22.40;99.90;;;;;;5010155;28;20696;-84
2022/09/02 09:01:30;;;;;;;2.22;1.58;;;22.60;99.90;;;;;;5009563;28;20219;-89
2022/09/02 09:04:11;;;;;;;1.30;1.20;;;22.60;99.90;;;;;;4984642;28;20247;-87
2022/09/02 09:06:55;;;;;;;2.35;1.48;;;22.10;99.90;;;;;;4995641;28;20238;-87
2022/09/02 09:09:31;;;;;;;1.23;1.13;;;22.00;99.90;;;;;;5002621;28;20715;-92
2022/09/02 09:12:25;;;;;;;3.20;1.45;;;21.90;99.90;;;;;;5010287;28;20239;-91
2022/09/02 09:15:07;;;;;;;1.35;1.25;;;21.90;99.90;;;;;;4995526;28;20220;-86
2022/09/02 09:17:39;;;;;;;3.53;1.20;;;22.10;99.90;;;;;;4996415;28;20172;-86
2022/09/02 09:20:19;;;;;;;2.75;1.10;;;22.10;99.90;;;;;;5013753;28;20183;-85
2022/09/02 09:22:49;;;;;;;1.10;1.10;;;22.30;99.90;;;;;;5030350;28;20686;-90
2022/09/02 09:25:16;;;;;;;2.80;1.35;;;22.20;99.90;;;;;;5010590;28;20282;-86
2022/09/02 09:27:46;;;;;;;2.40;1.23;;;22.20;99.90;;;;;;4988379;28;20306;-87
2022/09/02 09:30:12;;;;;;;0.88;0.88;;;22.50;99.90;;;;;;4994080;28;20208;-84
2022/09/02 09:32:58;;;;;;;2.55;1.08;;;23.00;99.90;;;;;;4979967;28;20294;-88
2022/09/02 09:35:47;;;;;;;1.30;1.20;;;22.90;99.90;;;;;;4997048;28;20230;-87
2022/09/02 09:38:13;;;;;;;2.05;1.20;;;22.40;99.90;;;;;;5030250;28;20183;-86
2022/09/02 09:40:39;;;;;;;1.00;0.90;;;22.30;99.90;;;;;;4977725;28;20696;-87
2022/09/02 09:43:05;;;;;;;1.10;1.00;;;22.20;99.90;;;;;;4997238;28;20261;-86
2022/09/02 09:45:36;;;;;;;1.20;0.95;;;22.40;99.90;;;;;;5009884;28;20224;-87
2022/09/02 09:48:26;;;;;;;2.97;1.45;;;22.30;99.90;;;;;;4999909;28;20285;-86
2022/09/02 09:50:55;;;;;;;1.05;1.02;;;22.40;99.90;;;;;;5010966;28;20227;-84
2022/09/02 09:53:22;;;;;;;1.83;1.08;;;22.70;99.90;;;;;;4995675;28;20216;-88
2022/09/02 09:55:54;;;;;;;1.70;0.93;;;23.20;99.90;;;;;;5015893;28;20175;-87
2022/09/02 09:58:41;;;;;;;6.53;1.35;;;23.80;99.90;;;;;;5010248;28;20219;-90
2022/09/02 10:01:28;;;;;;;1.83;0.70;;;23.80;99.90;;;;;;5010091;28;20223;-89
2022/09/02 10:04:25;;;;;;;1.05;0.95;;;23.60;99.90;;;;;;5016396;28;20265;-93
2022/09/02 10:06:52;;;;;;;2.00;1.08;;;23.30;99.90;;;;;;5015471;28;20223;-93
2022/09/02 10:09:17;;;;;;;0.90;0.90;;;23.20;99.90;;;;;;5030694;28;20239;-89
2022/09/02 10:11:57;;;;;;;0.88;0.88;;;23.30;99.90;;;;;;5014032;28;20223;-88
2022/09/02 10:14:25;;;;;;;1.42;0.90;;;23.20;99.90;;;;;;5013109;28;20202;-87
2022/09/02 10:17:12;;;;;;;0.82;0.80;;;23.70;99.90;;;;;;5015291;28;20175;-93
2022/09/02 10:19:50;;;;;;;0.73;0.73;;;23.90;99.90;;;;;;5014305;28;20761;-91
2022/09/02 10:22:41;;;;;;;1.15;1.00;;;23.90;99.90;;;;;;5013698;28;20215;-92
2022/09/02 10:25:35;;;;;;;0.68;0.68;;;23.70;99.90;;;;;;5010249;28;20262;-89
2022/09/02 10:28:36;;;;;;;1.38;1.17;;;23.80;99.90;;;;;;5005033;28;20231;-90
2022/09/02 10:31:35;;;;;;;3.00;0.90;;;23.50;99.90;;;;;;5009552;28;20234;-88
2022/09/02 10:34:31;;;;;;;1.05;1.00;;;23.70;99.90;;;;;;5008799;28;20227;-90
2022/09/02 10:37:26;;;;;;;0.90;0.90;;;23.60;99.90;;;;;;5015317;28;20223;-92
2022/09/02 10:40:13;;;;;;;1.20;1.10;;;23.70;99.90;;;;;;5013342;28;20223;-89
2022/09/02 10:42:47;;;;;;;0.80;0.80;;;23.90;99.90;;;;;;5015758;28;20228;-90
2022/09/02 10:45:17;;;;;;;0.95;0.88;;;23.90;99.90;;;;;;5015479;28;20273;-90
2022/09/02 10:48:27;;;;;;;0.88;0.88;;;23.70;99.90;;;;;;5016029;28;20234;-94
2022/09/02 10:51:04;;;;;;;1.33;0.90;;;24.10;99.90;;;;;;4914918;29;20250;-91
2022/09/02 10:53:47;;;;;;;0.50;0.50;;;24.00;99.90;;;;;;4916362;29;20258;-90
2022/09/02 10:56:20;;;;;;;1.00;0.73;;;24.00;99.90;;;;;;4987075;28;20193;-89
2022/09/02 10:58:58;;;;;;;0.98;0.80;;;23.70;99.90;;;;;;5013751;28;20603;-88
2022/09/02 11:01:35;;;;;;;1.08;1.02;;;23.80;99.90;;;;;;5009063;28;20647;-83
2022/09/02 11:04:07;;;;;;;1.05;0.90;;;23.80;99.90;;;;;;5008186;28;20222;-86
2022/09/02 11:06:43;;;;;;;3.53;1.00;;;23.70;99.90;;;;;;5023618;28;20724;-89
2022/09/02 11:09:12;;;;;;;1.75;1.02;;;23.90;99.90;;;;;;5001098;28;20766;-91
2022/09/02 11:11:41;;;;;;;4.10;1.00;;;23.70;99.90;;;;;;5012977;28;20231;-90
2022/09/02 11:14:34;;;;;;;0.80;0.73;;;23.80;99.90;;;;;;5017308;28;20211;-92
2022/09/02 11:17:08;;;;;;;0.90;0.90;;;24.10;99.90;;;;;;5011575;28;20212;-92
2022/09/02 11:19:52;;;;;;;4.13;1.10;;;23.90;99.90;;;;;;4992866;28;20580;-90
2022/09/02 11:22:39;;;;;;;0.65;0.65;;;24.20;99.90;;;;;;4994865;28;20219;-94
2022/09/02 11:25:20;;;;;;;0.77;0.77;;;24.10;99.90;;;;;;4996428;28;20221;-93
2022/09/02 11:27:59;;;;;;;1.08;1.00;;;24.10;99.90;;;;;;4994930;28;20224;-95
2022/09/02 11:30:50;;;;;;;0.88;0.88;;;24.40;99.90;;;;;;4995761;28;20227;-96
2022/09/02 11:33:25;;;;;;;2.75;0.90;;;24.40;99.90;;;;;;4995269;28;20231;-93
2022/09/02 11:35:51;;;;;;;2.72;1.08;;;24.70;99.90;;;;;;4994563;28;20573;-89
2022/09/02 11:38:38;;;;;;;0.80;0.80;;;24.70;99.90;;;;;;4982588;28;20268;-94
2022/09/02 11:41:23;;;;;;;2.08;0.93;;;24.50;99.90;;;;;;5025279;28;20257;-93
2022/09/02 11:44:14;;;;;;;1.10;1.00;;;24.50;99.90;;;;;;5018992;28;20207;-90
2022/09/02 11:47:06;;;;;;;7.80;1.10;;;24.30;99.90;;;;;;4969059;28;20226;-93
2022/09/02 11:50:16;;;;;;;1.38;1.20;;;24.10;99.90;;;;;;5012482;28;20219;-87
2022/09/02 11:53:10;;;;;;;1.80;0.82;;;24.10;99.90;;;;;;4976961;28;20595;-91
2022/09/02 11:55:45;;;;;;;2.85;0.82;;;24.10;99.90;;;;;;4993628;28;20224;-89
2022/09/02 11:58:36;;;;;;;0.88;0.85;;;24.10;99.90;;;;;;5008742;28;20215;-88
2022/09/02 12:01:18;;;;;;;1.10;1.00;;;23.90;99.90;;;;;;5006810;28;20234;-89
2022/09/02 12:03:59;;;;;;;2.97;1.02;;;23.70;99.90;;;;;;5013700;28;20230;-92
2022/09/02 12:06:25;;;;;;;1.02;0.90;;;23.70;99.90;;;;;;5013013;28;20584;-91
2022/09/02 12:08:52;;;;;;;4.75;1.05;;;24.10;99.90;;;;;;5012707;28;20310;-92
2022/09/02 12:11:44;;;;;;;1.42;0.93;;;24.10;99.90;;;;;;5013076;28;20192;-90
2022/09/02 12:14:25;;;;;;;4.25;1.13;;;24.00;99.90;;;;;;5012968;28;20223;-91
2022/09/02 12:17:05;;;;;;;1.00;1.00;;;24.10;99.90;;;;;;5012591;28;20222;-91
2022/09/02 12:19:37;;;;;;;4.47;1.13;;;24.20;99.90;;;;;;5010015;28;20595;-92
2022/09/02 12:22:15;;;;;;;1.45;0.98;;;24.20;99.90;;;;;;5006022;28;20684;-92
2022/09/02 12:25:23;;;;;;;1.27;0.75;;;24.10;99.90;;;;;;5008724;28;20267;-91
2022/09/02 12:27:49;;;;;;;1.20;0.90;;;24.10;99.90;;;;;;4993696;28;20249;-88
2022/09/02 12:30:53;;;;;;;5.30;1.30;;;23.90;99.90;;;;;;5011626;28;20220;-92
2022/09/02 12:33:43;;;;;;;2.35;1.50;;;24.00;99.90;;;;;;4997910;28;20258;-88
2022/09/02 12:36:35;;;;;;;3.00;1.08;;;24.00;99.90;;;;;;4999744;28;20216;-86
2022/09/02 12:39:22;;;;;;;3.13;1.15;;;24.00;99.90;;;;;;5014836;28;20309;-92
2022/09/02 12:42:20;;;;;;;1.55;1.30;;;24.10;99.90;;;;;;5014428;28;20618;-82
2022/09/02 12:45:08;;;;;;;2.95;1.00;;;24.00;99.90;;;;;;5013852;28;20242;-82
2022/09/02 12:47:47;;;;;;;1.20;1.10;;;24.10;99.90;;;;;;5013032;28;20252;-83
2022/09/02 12:50:42;;;;;;;2.10;1.42;;;24.10;99.90;;;;;;5015209;28;20176;-89
2022/09/02 12:53:11;;;;;;;1.27;1.17;;;24.30;99.90;;;;;;5015609;28;20215;-80
2022/09/02 12:55:38;;;;;;;1.85;1.00;;;24.30;99.90;;;;;;5010099;28;20238;-81
2022/09/02 12:58:10;;;;;;;1.30;1.20;;;24.40;99.90;;;;;;4992829;28;20215;-86
2022/09/02 13:01:08;;;;;;;1.30;1.20;;;24.30;99.90;;;;;;5010586;28;20247;-84
2022/09/02 13:03:34;;;;;;;1.17;1.13;;;24.10;99.90;;;;;;5005654;28;20222;-86
2022/09/02 13:06:03;;;;;;;1.05;1.05;;;24.20;99.90;;;;;;5012559;28;20685;-90
2022/09/02 13:08:43;;;;;;;2.05;1.30;;;24.40;99.90;;;;;;4989000;28;20232;-93
2022/09/02 13:11:40;;;;;;;1.33;1.20;;;24.20;99.90;;;;;;5014979;28;20195;-85
2022/09/02 13:14:27;;;;;;;0.90;0.90;;;24.20;99.90;;;;;;5013691;28;20684;-80
2022/09/02 13:17:30;;;;;;;3.15;1.20;;;24.10;99.90;;;;;;5013353;28;20214;-81